• Join FlightAware (Why Join?)
  • Login
  • US Flag 
Rudolph Flight #1: Arrived! 
05:49PM EST


 

Airport Tracker/Info


-or-


 

Live Flight TrackerFlight Track Log ✈ N44KS ✈ 02-May-2013 ✈ KPHF - KCLT

Flight Track Log - Related Links

Times and Time Zones

All times are in EDT time to prevent confusion due to time zone crossing. See the N44KS flight status page for this flight to view local times or setup timezone preferences in your user account.

Time Position Orientation Groundspeed Altitude Reporting Facility
EDT Latitude Longitude Course Direction KTS MPH feet Rate Location/Type
09:25AM 37.1394 -76.4778 357° North 121 139 900  Level Washington Center
09:26AM 37.1814 -76.4808 357° North 168 193 3,400 1,200 Climbing Washington Center
09:27AM 37.2122 -76.5306 308° West 199 229 4,000 480 Climbing Washington Center
09:28AM 37.2219 -76.6092 279° West 247 284 4,400 360 Climbing Washington Center
09:29AM 37.2028 -76.6636 246° West 240 276 4,800 720 Climbing Washington Center
09:30AM 37.1503 -76.7072 214° Southwest 234 269 5,800 1,020 Climbing Washington Center
09:31AM 37.0978 -76.7456 210° Southwest 234 269 6,900 1,020 Climbing Washington Center
09:32AM 37.0472 -76.7811 209° Southwest 222 255 7,900 960 Climbing Washington Center
09:33AM 36.9969 -76.8167 209° Southwest 217 250 8,900 960 Climbing Washington Center
09:34AM 36.9506 -76.8497 210° Southwest 206 237 9,900 840 Climbing Washington Center
09:35AM 36.9003 -76.8828 208° Southwest 201 231 10,700 840 Climbing Washington Center
09:36AM 36.8519 -76.9156 208° Southwest 206 237 11,600 960 Climbing Washington Center
09:37AM 36.8078 -76.9461 209° Southwest 201 231 12,600 780 Climbing Washington Center
09:38AM 36.7614 -76.9789 210° Southwest 201 231 13,200 540 Climbing Washington Center
09:39AM 36.7150 -77.0144 212° Southwest 201 231 13,800 360 Climbing Washington Center
09:40AM 36.6831 -77.0758 237° Southwest 201 231 14,000 60 Climbing Washington Center
09:41AM 36.6508 -77.1478 241° Southwest 224 258 14,000  Level Washington Center
09:42AM 36.6164 -77.2222 240° Southwest 239 275 14,000  Level Washington Center
09:43AM 36.5800 -77.2964 239° Southwest 252 290 14,000  Level Washington Center
09:44AM 36.5456 -77.3758 242° Southwest 252 290 14,000  Level Washington Center
09:45AM 36.5089 -77.4500 238° Southwest 252 290 14,000  Level Washington Center
09:46AM 36.4722 -77.5292 240° Southwest 263 303 14,000  Level Washington Center
09:47AM 36.4375 -77.6083 241° Southwest 263 303 14,000  Level Washington Center
09:48AM 36.4028 -77.6822 240° Southwest 263 303 14,000  Level Washington Center
09:49AM 36.3681 -77.7614 241° Southwest 263 303 14,000  Level Washington Center
09:50AM 36.3311 -77.8378 239° Southwest 263 303 14,000  Level Washington Center
09:51AM 36.2922 -77.9164 238° Southwest 263 303 14,000  Level Washington Center
09:52AM 36.2550 -77.9925 239° Southwest 263 303 14,000  Level Washington Center
09:53AM 36.2203 -78.0689 241° Southwest 263 303 14,000  Level Washington Center
09:54AM 36.1786 -78.1550 239° Southwest 263 303 14,000  Level Washington Center
09:55AM 36.1664 -78.2419 260° West 258 297 14,000  Level Washington Center
09:56AM 36.1603 -78.3319 265° West 258 297 14,000  Level Washington Center
09:57AM 36.1561 -78.4167 267° West 258 297 14,000  Level Washington Center
09:58AM 36.1497 -78.5064 265° West 253 291 14,000  Level Washington Center
09:59AM 36.1436 -78.5936 265° West 253 291 14,000  Level Washington Center
10:00AM 36.1372 -78.6808 265° West 253 291 14,000  Level Washington Center
10:01AM 36.1306 -78.7706 265° West 253 291 14,000  Level Washington Center
10:02AM 36.1281 -78.8606 268° West 253 291 14,000  Level Washington Center
10:03AM 36.1217 -78.9478 265° West 253 291 14,000 -180 Level Washington Center
10:04AM 36.1147 -79.0375 265° West 253 291 13,700 -420 Descending Washington Center
10:05AM 36.1058 -79.1294 263° West 259 298 13,200 -360 Descending Washington Center
10:07AM 36.1003 -79.2121 265° West  Level FlightAware Approximate
10:14AM 36.0553 -79.6796 263° West  Level FlightAware Approximate
10:15AM 36.0491 -79.7464 265° West  Level FlightAware Approximate
10:16AM 36.0443 -79.8133 265° West  Level FlightAware Approximate
10:16AM 35.8806 -80.1100 229° Southwest 258 297 9,600  Level Atlanta Center
10:17AM 36.0396 -79.8803 265° West  Level FlightAware Approximate
10:18AM 36.0347 -79.9472 265° West  Level FlightAware Approximate
10:19AM 36.0078 -80.0024 229° Southwest  Level FlightAware Approximate
10:20AM 35.9718 -80.0528 229° Southwest  Level FlightAware Approximate
10:21AM 35.9359 -80.1031 229° Southwest  Level FlightAware Approximate